sensor_id;sensor_type;location;lat;lon;timestamp;P1;durP1;ratioP1;P2;durP2;ratioP2
36817;SDS011;22761;51.542;16.450;2023-07-31T00:00:05;5.70;;;2.60;;
36817;SDS011;22761;51.542;16.450;2023-07-31T00:02:33;3.90;;;2.30;;
36817;SDS011;22761;51.542;16.450;2023-07-31T00:05:00;4.20;;;2.20;;
36817;SDS011;22761;51.542;16.450;2023-07-31T00:07:28;4.90;;;2.10;;
36817;SDS011;22761;51.542;16.450;2023-07-31T00:09:54;3.20;;;2.20;;
36817;SDS011;22761;51.542;16.450;2023-07-31T00:12:23;4.70;;;2.50;;
36817;SDS011;22761;51.542;16.450;2023-07-31T00:14:50;6.90;;;2.20;;
36817;SDS011;22761;51.542;16.450;2023-07-31T00:17:17;5.80;;;2.20;;
36817;SDS011;22761;51.542;16.450;2023-07-31T00:19:44;4.30;;;2.40;;
36817;SDS011;22761;51.542;16.450;2023-07-31T00:22:12;4.80;;;2.20;;
36817;SDS011;22761;51.542;16.450;2023-07-31T00:24:39;4.80;;;1.90;;
36817;SDS011;22761;51.542;16.450;2023-07-31T00:27:06;4.60;;;2.40;;
36817;SDS011;22761;51.542;16.450;2023-07-31T00:29:33;5.90;;;2.90;;
36817;SDS011;22761;51.542;16.450;2023-07-31T00:32:00;5.60;;;2.40;;
36817;SDS011;22761;51.542;16.450;2023-07-31T00:34:27;4.40;;;2.40;;
36817;SDS011;22761;51.542;16.450;2023-07-31T00:36:54;2.20;;;2.00;;
36817;SDS011;22761;51.542;16.450;2023-07-31T00:39:20;6.10;;;2.50;;
36817;SDS011;22761;51.542;16.450;2023-07-31T00:41:47;4.90;;;2.20;;
36817;SDS011;22761;51.542;16.450;2023-07-31T00:44:17;3.80;;;2.60;;
36817;SDS011;22761;51.542;16.450;2023-07-31T00:46:44;5.00;;;2.80;;
36817;SDS011;22761;51.542;16.450;2023-07-31T00:49:11;4.20;;;2.60;;
36817;SDS011;22761;51.542;16.450;2023-07-31T00:51:38;4.40;;;2.50;;
36817;SDS011;22761;51.542;16.450;2023-07-31T00:54:06;4.90;;;2.60;;
36817;SDS011;22761;51.542;16.450;2023-07-31T00:56:33;5.50;;;2.30;;
36817;SDS011;22761;51.542;16.450;2023-07-31T00:59:00;5.90;;;2.50;;
36817;SDS011;22761;51.542;16.450;2023-07-31T01:01:27;4.60;;;2.40;;
36817;SDS011;22761;51.542;16.450;2023-07-31T01:03:54;6.20;;;2.10;;
36817;SDS011;22761;51.542;16.450;2023-07-31T01:09:10;5.50;;;2.80;;
36817;SDS011;22761;51.542;16.450;2023-07-31T01:11:46;4.00;;;2.40;;
36817;SDS011;22761;51.542;16.450;2023-07-31T01:14:17;3.70;;;2.30;;
36817;SDS011;22761;51.542;16.450;2023-07-31T01:16:44;4.40;;;2.20;;
36817;SDS011;22761;51.542;16.450;2023-07-31T01:19:11;6.50;;;2.20;;
36817;SDS011;22761;51.542;16.450;2023-07-31T01:21:50;3.80;;;1.90;;
36817;SDS011;22761;51.542;16.450;2023-07-31T01:24:20;5.80;;;2.30;;
36817;SDS011;22761;51.542;16.450;2023-07-31T01:26:57;5.60;;;2.50;;
36817;SDS011;22761;51.542;16.450;2023-07-31T01:29:38;3.80;;;2.60;;
36817;SDS011;22761;51.542;16.450;2023-07-31T01:32:28;7.20;;;2.90;;
36817;SDS011;22761;51.542;16.450;2023-07-31T01:34:56;7.30;;;2.50;;
36817;SDS011;22761;51.542;16.450;2023-07-31T01:37:28;6.40;;;2.30;;
36817;SDS011;22761;51.542;16.450;2023-07-31T01:39:56;5.40;;;2.50;;
36817;SDS011;22761;51.542;16.450;2023-07-31T01:42:23;6.40;;;2.70;;
36817;SDS011;22761;51.542;16.450;2023-07-31T01:44:50;5.00;;;2.30;;
36817;SDS011;22761;51.542;16.450;2023-07-31T01:47:17;6.80;;;2.50;;
36817;SDS011;22761;51.542;16.450;2023-07-31T01:49:44;5.90;;;2.50;;
36817;SDS011;22761;51.542;16.450;2023-07-31T01:52:11;4.30;;;2.30;;
36817;SDS011;22761;51.542;16.450;2023-07-31T01:54:38;4.50;;;2.30;;
36817;SDS011;22761;51.542;16.450;2023-07-31T01:57:05;3.80;;;2.40;;
36817;SDS011;22761;51.542;16.450;2023-07-31T01:59:33;5.40;;;2.30;;
36817;SDS011;22761;51.542;16.450;2023-07-31T02:02:00;3.90;;;2.10;;
36817;SDS011;22761;51.542;16.450;2023-07-31T02:04:27;6.00;;;2.30;;
36817;SDS011;22761;51.542;16.450;2023-07-31T02:06:54;4.80;;;2.40;;
36817;SDS011;22761;51.542;16.450;2023-07-31T02:09:21;3.30;;;2.20;;
36817;SDS011;22761;51.542;16.450;2023-07-31T02:11:48;4.20;;;2.20;;
36817;SDS011;22761;51.542;16.450;2023-07-31T02:14:15;8.90;;;3.10;;
36817;SDS011;22761;51.542;16.450;2023-07-31T02:16:42;9.40;;;2.70;;
36817;SDS011;22761;51.542;16.450;2023-07-31T02:19:10;5.30;;;2.50;;
36817;SDS011;22761;51.542;16.450;2023-07-31T02:21:37;5.20;;;2.50;;
36817;SDS011;22761;51.542;16.450;2023-07-31T02:24:04;5.30;;;2.50;;
36817;SDS011;22761;51.542;16.450;2023-07-31T02:26:32;5.20;;;2.50;;
36817;SDS011;22761;51.542;16.450;2023-07-31T02:28:59;5.40;;;2.50;;
36817;SDS011;22761;51.542;16.450;2023-07-31T02:31:26;5.60;;;2.70;;
36817;SDS011;22761;51.542;16.450;2023-07-31T02:33:53;4.20;;;2.30;;
36817;SDS011;22761;51.542;16.450;2023-07-31T02:36:21;4.10;;;2.50;;
36817;SDS011;22761;51.542;16.450;2023-07-31T02:38:48;5.90;;;2.90;;
36817;SDS011;22761;51.542;16.450;2023-07-31T02:41:15;9.90;;;2.50;;
36817;SDS011;22761;51.542;16.450;2023-07-31T02:43:42;4.30;;;2.50;;
36817;SDS011;22761;51.542;16.450;2023-07-31T02:46:09;7.30;;;2.40;;
36817;SDS011;22761;51.542;16.450;2023-07-31T02:48:36;5.00;;;2.90;;
36817;SDS011;22761;51.542;16.450;2023-07-31T02:51:03;3.80;;;2.40;;
36817;SDS011;22761;51.542;16.450;2023-07-31T02:53:30;8.40;;;2.70;;
36817;SDS011;22761;51.542;16.450;2023-07-31T02:55:57;7.90;;;3.10;;
36817;SDS011;22761;51.542;16.450;2023-07-31T02:58:24;6.00;;;2.80;;
36817;SDS011;22761;51.542;16.450;2023-07-31T03:00:51;6.70;;;2.80;;
36817;SDS011;22761;51.542;16.450;2023-07-31T03:03:18;7.20;;;2.80;;
36817;SDS011;22761;51.542;16.450;2023-07-31T03:05:45;8.50;;;3.00;;
36817;SDS011;22761;51.542;16.450;2023-07-31T03:08:12;7.10;;;2.80;;
36817;SDS011;22761;51.542;16.450;2023-07-31T03:10:38;5.60;;;2.70;;
36817;SDS011;22761;51.542;16.450;2023-07-31T03:13:05;6.30;;;2.70;;
36817;SDS011;22761;51.542;16.450;2023-07-31T03:15:32;5.90;;;2.40;;
36817;SDS011;22761;51.542;16.450;2023-07-31T03:17:59;6.00;;;2.80;;
36817;SDS011;22761;51.542;16.450;2023-07-31T03:20:27;5.50;;;2.60;;
36817;SDS011;22761;51.542;16.450;2023-07-31T03:22:54;8.40;;;3.20;;
36817;SDS011;22761;51.542;16.450;2023-07-31T03:25:21;7.50;;;2.80;;
36817;SDS011;22761;51.542;16.450;2023-07-31T03:27:47;4.40;;;2.70;;
36817;SDS011;22761;51.542;16.450;2023-07-31T03:30:14;6.90;;;3.30;;
36817;SDS011;22761;51.542;16.450;2023-07-31T03:32:41;5.40;;;2.70;;
36817;SDS011;22761;51.542;16.450;2023-07-31T03:35:08;5.00;;;2.90;;
36817;SDS011;22761;51.542;16.450;2023-07-31T03:37:35;4.60;;;2.50;;
36817;SDS011;22761;51.542;16.450;2023-07-31T03:40:02;5.10;;;2.50;;
36817;SDS011;22761;51.542;16.450;2023-07-31T03:42:31;6.80;;;2.60;;
36817;SDS011;22761;51.542;16.450;2023-07-31T03:44:57;5.60;;;3.30;;
36817;SDS011;22761;51.542;16.450;2023-07-31T03:47:25;4.80;;;2.70;;
36817;SDS011;22761;51.542;16.450;2023-07-31T03:49:52;4.30;;;2.50;;
36817;SDS011;22761;51.542;16.450;2023-07-31T03:52:20;4.40;;;2.60;;
36817;SDS011;22761;51.542;16.450;2023-07-31T03:54:46;6.50;;;2.60;;
36817;SDS011;22761;51.542;16.450;2023-07-31T03:57:13;6.90;;;2.90;;
36817;SDS011;22761;51.542;16.450;2023-07-31T03:59:40;5.30;;;2.50;;
36817;SDS011;22761;51.542;16.450;2023-07-31T04:02:07;7.40;;;2.80;;
36817;SDS011;22761;51.542;16.450;2023-07-31T04:04:34;5.50;;;3.00;;
36817;SDS011;22761;51.542;16.450;2023-07-31T04:07:02;5.00;;;2.60;;
36817;SDS011;22761;51.542;16.450;2023-07-31T04:09:29;4.80;;;2.70;;
36817;SDS011;22761;51.542;16.450;2023-07-31T04:11:56;5.10;;;2.50;;
36817;SDS011;22761;51.542;16.450;2023-07-31T04:14:23;6.10;;;3.40;;
36817;SDS011;22761;51.542;16.450;2023-07-31T04:16:50;4.70;;;2.60;;
36817;SDS011;22761;51.542;16.450;2023-07-31T04:19:17;5.10;;;2.50;;
36817;SDS011;22761;51.542;16.450;2023-07-31T04:21:44;7.10;;;2.90;;
36817;SDS011;22761;51.542;16.450;2023-07-31T04:24:11;5.20;;;2.60;;
36817;SDS011;22761;51.542;16.450;2023-07-31T04:26:38;4.40;;;2.90;;
36817;SDS011;22761;51.542;16.450;2023-07-31T04:29:05;5.10;;;2.70;;
36817;SDS011;22761;51.542;16.450;2023-07-31T04:31:33;7.00;;;2.90;;
36817;SDS011;22761;51.542;16.450;2023-07-31T04:34:03;4.30;;;2.30;;
36817;SDS011;22761;51.542;16.450;2023-07-31T04:36:30;5.40;;;2.90;;
36817;SDS011;22761;51.542;16.450;2023-07-31T04:38:57;9.30;;;2.60;;
36817;SDS011;22761;51.542;16.450;2023-07-31T04:41:24;4.10;;;2.60;;
36817;SDS011;22761;51.542;16.450;2023-07-31T04:43:51;7.30;;;3.20;;
36817;SDS011;22761;51.542;16.450;2023-07-31T04:46:18;6.60;;;2.60;;
36817;SDS011;22761;51.542;16.450;2023-07-31T04:48:45;6.80;;;2.40;;
36817;SDS011;22761;51.542;16.450;2023-07-31T04:51:12;7.10;;;2.70;;
36817;SDS011;22761;51.542;16.450;2023-07-31T04:53:39;8.60;;;2.80;;
36817;SDS011;22761;51.542;16.450;2023-07-31T04:56:06;6.20;;;2.80;;
36817;SDS011;22761;51.542;16.450;2023-07-31T04:58:33;4.30;;;2.60;;
36817;SDS011;22761;51.542;16.450;2023-07-31T05:01:00;5.60;;;2.80;;
36817;SDS011;22761;51.542;16.450;2023-07-31T05:03:27;5.60;;;3.30;;
36817;SDS011;22761;51.542;16.450;2023-07-31T05:05:54;7.60;;;2.60;;
36817;SDS011;22761;51.542;16.450;2023-07-31T05:08:21;6.10;;;2.50;;
36817;SDS011;22761;51.542;16.450;2023-07-31T05:10:48;7.10;;;3.00;;
36817;SDS011;22761;51.542;16.450;2023-07-31T05:13:15;4.80;;;2.50;;
36817;SDS011;22761;51.542;16.450;2023-07-31T05:15:42;6.70;;;2.70;;
36817;SDS011;22761;51.542;16.450;2023-07-31T05:18:09;4.90;;;2.30;;
36817;SDS011;22761;51.542;16.450;2023-07-31T05:20:36;6.90;;;2.60;;
36817;SDS011;22761;51.542;16.450;2023-07-31T05:23:03;5.50;;;2.50;;
36817;SDS011;22761;51.542;16.450;2023-07-31T05:25:30;4.00;;;2.30;;
36817;SDS011;22761;51.542;16.450;2023-07-31T05:27:56;5.70;;;2.20;;
36817;SDS011;22761;51.542;16.450;2023-07-31T05:30:23;6.40;;;2.30;;
36817;SDS011;22761;51.542;16.450;2023-07-31T05:32:51;6.20;;;2.20;;
36817;SDS011;22761;51.542;16.450;2023-07-31T05:35:18;6.30;;;1.90;;
36817;SDS011;22761;51.542;16.450;2023-07-31T05:37:45;6.30;;;2.00;;
36817;SDS011;22761;51.542;16.450;2023-07-31T05:40:11;9.30;;;2.40;;
36817;SDS011;22761;51.542;16.450;2023-07-31T05:42:38;9.00;;;2.20;;
36817;SDS011;22761;51.542;16.450;2023-07-31T05:45:06;5.50;;;2.60;;
36817;SDS011;22761;51.542;16.450;2023-07-31T05:47:33;5.20;;;2.00;;
36817;SDS011;22761;51.542;16.450;2023-07-31T05:50:01;4.90;;;1.80;;
36817;SDS011;22761;51.542;16.450;2023-07-31T05:52:28;7.40;;;1.90;;
36817;SDS011;22761;51.542;16.450;2023-07-31T05:54:55;3.70;;;1.90;;
36817;SDS011;22761;51.542;16.450;2023-07-31T05:57:22;7.00;;;1.70;;
36817;SDS011;22761;51.542;16.450;2023-07-31T05:59:49;4.40;;;1.90;;
36817;SDS011;22761;51.542;16.450;2023-07-31T06:02:16;6.40;;;2.20;;
36817;SDS011;22761;51.542;16.450;2023-07-31T06:04:43;6.20;;;2.00;;
36817;SDS011;22761;51.542;16.450;2023-07-31T06:07:10;7.90;;;1.70;;
36817;SDS011;22761;51.542;16.450;2023-07-31T06:09:37;5.70;;;2.30;;
36817;SDS011;22761;51.542;16.450;2023-07-31T06:12:04;5.50;;;1.80;;
36817;SDS011;22761;51.542;16.450;2023-07-31T06:14:31;5.10;;;1.90;;
36817;SDS011;22761;51.542;16.450;2023-07-31T06:16:58;5.50;;;2.10;;
36817;SDS011;22761;51.542;16.450;2023-07-31T06:19:25;5.10;;;1.80;;
36817;SDS011;22761;51.542;16.450;2023-07-31T06:21:52;4.00;;;1.80;;
36817;SDS011;22761;51.542;16.450;2023-07-31T06:24:19;8.10;;;2.10;;
36817;SDS011;22761;51.542;16.450;2023-07-31T06:26:47;5.30;;;1.70;;
36817;SDS011;22761;51.542;16.450;2023-07-31T06:29:14;6.30;;;1.70;;
36817;SDS011;22761;51.542;16.450;2023-07-31T06:31:41;4.00;;;1.80;;
36817;SDS011;22761;51.542;16.450;2023-07-31T06:34:08;5.80;;;1.90;;
36817;SDS011;22761;51.542;16.450;2023-07-31T06:36:35;7.10;;;1.70;;
36817;SDS011;22761;51.542;16.450;2023-07-31T06:39:02;10.60;;;2.00;;
36817;SDS011;22761;51.542;16.450;2023-07-31T06:41:30;5.90;;;1.90;;
36817;SDS011;22761;51.542;16.450;2023-07-31T06:43:57;7.10;;;2.00;;
36817;SDS011;22761;51.542;16.450;2023-07-31T06:46:24;3.50;;;1.40;;
36817;SDS011;22761;51.542;16.450;2023-07-31T06:48:51;5.60;;;1.70;;
36817;SDS011;22761;51.542;16.450;2023-07-31T06:51:18;8.10;;;2.00;;
36817;SDS011;22761;51.542;16.450;2023-07-31T06:53:45;4.10;;;1.50;;
36817;SDS011;22761;51.542;16.450;2023-07-31T06:56:12;3.30;;;1.40;;
36817;SDS011;22761;51.542;16.450;2023-07-31T06:58:39;7.10;;;1.80;;
36817;SDS011;22761;51.542;16.450;2023-07-31T07:01:06;4.30;;;1.50;;
36817;SDS011;22761;51.542;16.450;2023-07-31T07:03:33;4.30;;;1.50;;
36817;SDS011;22761;51.542;16.450;2023-07-31T07:06:00;4.30;;;1.60;;
36817;SDS011;22761;51.542;16.450;2023-07-31T07:08:27;7.70;;;1.50;;
36817;SDS011;22761;51.542;16.450;2023-07-31T07:10:54;3.30;;;1.30;;
36817;SDS011;22761;51.542;16.450;2023-07-31T07:13:21;3.50;;;1.30;;
36817;SDS011;22761;51.542;16.450;2023-07-31T07:15:49;6.10;;;1.40;;
36817;SDS011;22761;51.542;16.450;2023-07-31T07:18:16;7.10;;;1.80;;
36817;SDS011;22761;51.542;16.450;2023-07-31T07:20:49;2.80;;;1.10;;
36817;SDS011;22761;51.542;16.450;2023-07-31T07:23:16;3.40;;;1.30;;
36817;SDS011;22761;51.542;16.450;2023-07-31T07:25:44;4.40;;;1.30;;
36817;SDS011;22761;51.542;16.450;2023-07-31T07:28:12;5.30;;;1.30;;
36817;SDS011;22761;51.542;16.450;2023-07-31T07:30:39;4.50;;;1.30;;
36817;SDS011;22761;51.542;16.450;2023-07-31T07:33:06;4.10;;;1.00;;
36817;SDS011;22761;51.542;16.450;2023-07-31T07:35:34;3.20;;;1.10;;
36817;SDS011;22761;51.542;16.450;2023-07-31T07:38:02;3.90;;;1.50;;
36817;SDS011;22761;51.542;16.450;2023-07-31T07:40:29;3.80;;;1.10;;
36817;SDS011;22761;51.542;16.450;2023-07-31T07:42:56;4.60;;;1.20;;
36817;SDS011;22761;51.542;16.450;2023-07-31T07:45:23;2.10;;;1.20;;
36817;SDS011;22761;51.542;16.450;2023-07-31T07:47:50;4.30;;;1.20;;
36817;SDS011;22761;51.542;16.450;2023-07-31T07:50:17;4.80;;;1.20;;
36817;SDS011;22761;51.542;16.450;2023-07-31T07:52:45;3.30;;;1.20;;
36817;SDS011;22761;51.542;16.450;2023-07-31T07:55:12;3.70;;;1.00;;
36817;SDS011;22761;51.542;16.450;2023-07-31T07:57:39;4.00;;;1.10;;
36817;SDS011;22761;51.542;16.450;2023-07-31T08:00:06;2.70;;;1.30;;
36817;SDS011;22761;51.542;16.450;2023-07-31T08:02:40;1.90;;;1.00;;
36817;SDS011;22761;51.542;16.450;2023-07-31T08:05:07;3.30;;;1.00;;
36817;SDS011;22761;51.542;16.450;2023-07-31T08:07:35;2.30;;;1.20;;
36817;SDS011;22761;51.542;16.450;2023-07-31T08:10:02;5.10;;;1.60;;
36817;SDS011;22761;51.542;16.450;2023-07-31T08:12:29;6.10;;;1.40;;
36817;SDS011;22761;51.542;16.450;2023-07-31T08:14:56;4.90;;;1.60;;
36817;SDS011;22761;51.542;16.450;2023-07-31T08:17:23;8.60;;;1.40;;
36817;SDS011;22761;51.542;16.450;2023-07-31T08:19:50;9.80;;;2.60;;
36817;SDS011;22761;51.542;16.450;2023-07-31T08:22:17;18.40;;;3.30;;
36817;SDS011;22761;51.542;16.450;2023-07-31T08:24:44;7.80;;;1.70;;
36817;SDS011;22761;51.542;16.450;2023-07-31T08:27:11;3.90;;;1.30;;
36817;SDS011;22761;51.542;16.450;2023-07-31T08:29:38;2.70;;;1.10;;
36817;SDS011;22761;51.542;16.450;2023-07-31T08:32:05;3.80;;;1.10;;
36817;SDS011;22761;51.542;16.450;2023-07-31T08:34:33;4.20;;;1.30;;
36817;SDS011;22761;51.542;16.450;2023-07-31T08:37:00;5.20;;;1.70;;
36817;SDS011;22761;51.542;16.450;2023-07-31T08:39:27;4.70;;;1.50;;
36817;SDS011;22761;51.542;16.450;2023-07-31T08:41:57;4.20;;;1.30;;
36817;SDS011;22761;51.542;16.450;2023-07-31T08:44:26;3.70;;;1.20;;
36817;SDS011;22761;51.542;16.450;2023-07-31T08:46:53;8.70;;;1.60;;
36817;SDS011;22761;51.542;16.450;2023-07-31T08:49:21;2.50;;;1.30;;
36817;SDS011;22761;51.542;16.450;2023-07-31T08:51:49;3.10;;;1.30;;
36817;SDS011;22761;51.542;16.450;2023-07-31T08:54:17;4.90;;;1.30;;
36817;SDS011;22761;51.542;16.450;2023-07-31T08:56:44;3.90;;;1.20;;
36817;SDS011;22761;51.542;16.450;2023-07-31T08:59:11;5.00;;;1.60;;
36817;SDS011;22761;51.542;16.450;2023-07-31T09:01:41;6.10;;;1.50;;
36817;SDS011;22761;51.542;16.450;2023-07-31T09:04:10;4.90;;;1.40;;
36817;SDS011;22761;51.542;16.450;2023-07-31T09:06:39;3.60;;;1.60;;
36817;SDS011;22761;51.542;16.450;2023-07-31T09:09:07;2.30;;;1.00;;
36817;SDS011;22761;51.542;16.450;2023-07-31T09:11:34;4.30;;;1.40;;
36817;SDS011;22761;51.542;16.450;2023-07-31T09:14:00;5.80;;;1.40;;
36817;SDS011;22761;51.542;16.450;2023-07-31T09:16:35;3.80;;;1.10;;
36817;SDS011;22761;51.542;16.450;2023-07-31T09:19:02;4.00;;;1.30;;
36817;SDS011;22761;51.542;16.450;2023-07-31T09:21:29;2.60;;;1.30;;
36817;SDS011;22761;51.542;16.450;2023-07-31T09:23:57;7.90;;;1.40;;
36817;SDS011;22761;51.542;16.450;2023-07-31T09:26:31;5.40;;;1.10;;
36817;SDS011;22761;51.542;16.450;2023-07-31T09:29:05;4.30;;;1.50;;
36817;SDS011;22761;51.542;16.450;2023-07-31T09:31:41;4.10;;;1.30;;
36817;SDS011;22761;51.542;16.450;2023-07-31T09:34:09;4.10;;;1.40;;
36817;SDS011;22761;51.542;16.450;2023-07-31T09:36:49;4.20;;;1.40;;
36817;SDS011;22761;51.542;16.450;2023-07-31T09:39:17;3.80;;;1.30;;
36817;SDS011;22761;51.542;16.450;2023-07-31T09:41:48;4.10;;;1.70;;
36817;SDS011;22761;51.542;16.450;2023-07-31T09:44:20;5.40;;;1.70;;
36817;SDS011;22761;51.542;16.450;2023-07-31T09:46:48;3.60;;;1.50;;
36817;SDS011;22761;51.542;16.450;2023-07-31T09:49:15;4.00;;;1.30;;
36817;SDS011;22761;51.542;16.450;2023-07-31T09:51:42;4.40;;;1.50;;
36817;SDS011;22761;51.542;16.450;2023-07-31T09:54:12;4.00;;;1.40;;
36817;SDS011;22761;51.542;16.450;2023-07-31T09:56:44;3.70;;;1.60;;
36817;SDS011;22761;51.542;16.450;2023-07-31T09:59:15;3.50;;;1.60;;
36817;SDS011;22761;51.542;16.450;2023-07-31T10:01:46;2.70;;;1.40;;
36817;SDS011;22761;51.542;16.450;2023-07-31T10:04:13;4.90;;;1.60;;
36817;SDS011;22761;51.542;16.450;2023-07-31T10:06:41;2.40;;;1.70;;
36817;SDS011;22761;51.542;16.450;2023-07-31T10:09:09;5.30;;;1.90;;
36817;SDS011;22761;51.542;16.450;2023-07-31T10:11:41;3.90;;;1.80;;
36817;SDS011;22761;51.542;16.450;2023-07-31T10:14:10;5.00;;;1.90;;
36817;SDS011;22761;51.542;16.450;2023-07-31T10:16:38;4.30;;;1.70;;
36817;SDS011;22761;51.542;16.450;2023-07-31T10:19:07;5.10;;;1.70;;
36817;SDS011;22761;51.542;16.450;2023-07-31T10:21:34;3.30;;;1.50;;
36817;SDS011;22761;51.542;16.450;2023-07-31T10:24:04;2.20;;;1.40;;
36817;SDS011;22761;51.542;16.450;2023-07-31T10:26:32;2.80;;;1.50;;
36817;SDS011;22761;51.542;16.450;2023-07-31T10:29:02;3.60;;;1.40;;
36817;SDS011;22761;51.542;16.450;2023-07-31T10:31:30;3.10;;;1.50;;
36817;SDS011;22761;51.542;16.450;2023-07-31T10:33:58;2.40;;;1.30;;
36817;SDS011;22761;51.542;16.450;2023-07-31T10:36:29;3.30;;;1.40;;
36817;SDS011;22761;51.542;16.450;2023-07-31T10:38:56;2.90;;;1.70;;
36817;SDS011;22761;51.542;16.450;2023-07-31T10:41:30;3.00;;;1.80;;
36817;SDS011;22761;51.542;16.450;2023-07-31T10:44:00;4.00;;;1.80;;
36817;SDS011;22761;51.542;16.450;2023-07-31T10:46:28;2.90;;;1.80;;
36817;SDS011;22761;51.542;16.450;2023-07-31T10:49:00;2.80;;;1.70;;
36817;SDS011;22761;51.542;16.450;2023-07-31T10:51:34;3.60;;;1.70;;
36817;SDS011;22761;51.542;16.450;2023-07-31T10:54:15;4.20;;;2.20;;
36817;SDS011;22761;51.542;16.450;2023-07-31T10:56:45;3.70;;;2.00;;
36817;SDS011;22761;51.542;16.450;2023-07-31T10:59:13;3.10;;;1.80;;
36817;SDS011;22761;51.542;16.450;2023-07-31T11:01:50;3.50;;;1.90;;
36817;SDS011;22761;51.542;16.450;2023-07-31T11:04:24;3.90;;;1.60;;
36817;SDS011;22761;51.542;16.450;2023-07-31T11:06:58;3.20;;;1.80;;
36817;SDS011;22761;51.542;16.450;2023-07-31T11:09:29;4.20;;;1.80;;
36817;SDS011;22761;51.542;16.450;2023-07-31T11:11:57;4.60;;;2.00;;
36817;SDS011;22761;51.542;16.450;2023-07-31T11:14:25;3.70;;;2.10;;
36817;SDS011;22761;51.542;16.450;2023-07-31T11:16:52;4.20;;;2.30;;
36817;SDS011;22761;51.542;16.450;2023-07-31T11:19:23;4.20;;;1.80;;
36817;SDS011;22761;51.542;16.450;2023-07-31T11:21:51;3.00;;;1.90;;
36817;SDS011;22761;51.542;16.450;2023-07-31T11:24:19;5.10;;;2.20;;
36817;SDS011;22761;51.542;16.450;2023-07-31T11:26:52;2.80;;;1.70;;
36817;SDS011;22761;51.542;16.450;2023-07-31T11:29:20;3.30;;;2.00;;
36817;SDS011;22761;51.542;16.450;2023-07-31T11:31:47;3.50;;;2.00;;
36817;SDS011;22761;51.542;16.450;2023-07-31T11:34:15;4.20;;;1.90;;
36817;SDS011;22761;51.542;16.450;2023-07-31T11:36:53;3.20;;;1.90;;
36817;SDS011;22761;51.542;16.450;2023-07-31T11:39:21;3.20;;;1.80;;
36817;SDS011;22761;51.542;16.450;2023-07-31T11:41:48;4.60;;;2.10;;
36817;SDS011;22761;51.542;16.450;2023-07-31T11:44:15;4.80;;;2.00;;
36817;SDS011;22761;51.542;16.450;2023-07-31T11:46:56;5.90;;;2.50;;
36817;SDS011;22761;51.542;16.450;2023-07-31T11:49:23;6.20;;;2.20;;
36817;SDS011;22761;51.542;16.450;2023-07-31T11:51:50;5.30;;;1.70;;
36817;SDS011;22761;51.542;16.450;2023-07-31T11:54:17;3.00;;;1.70;;
36817;SDS011;22761;51.542;16.450;2023-07-31T11:56:45;3.90;;;1.90;;
36817;SDS011;22761;51.542;16.450;2023-07-31T11:59:12;3.90;;;1.60;;
36817;SDS011;22761;51.542;16.450;2023-07-31T12:01:39;2.80;;;1.70;;
36817;SDS011;22761;51.542;16.450;2023-07-31T12:04:06;2.70;;;1.80;;
36817;SDS011;22761;51.542;16.450;2023-07-31T12:06:34;2.60;;;1.90;;
36817;SDS011;22761;51.542;16.450;2023-07-31T12:09:02;5.80;;;1.80;;
36817;SDS011;22761;51.542;16.450;2023-07-31T12:11:30;2.40;;;1.40;;
36817;SDS011;22761;51.542;16.450;2023-07-31T12:13:57;2.60;;;1.50;;
36817;SDS011;22761;51.542;16.450;2023-07-31T12:16:25;2.60;;;1.80;;
36817;SDS011;22761;51.542;16.450;2023-07-31T12:18:53;2.80;;;1.60;;
36817;SDS011;22761;51.542;16.450;2023-07-31T12:21:21;4.30;;;1.80;;
36817;SDS011;22761;51.542;16.450;2023-07-31T12:23:47;3.00;;;1.90;;
36817;SDS011;22761;51.542;16.450;2023-07-31T12:26:15;3.80;;;1.50;;
36817;SDS011;22761;51.542;16.450;2023-07-31T12:28:43;4.00;;;1.60;;
36817;SDS011;22761;51.542;16.450;2023-07-31T12:31:12;3.50;;;1.80;;
36817;SDS011;22761;51.542;16.450;2023-07-31T12:36:09;3.00;;;1.30;;
36817;SDS011;22761;51.542;16.450;2023-07-31T12:38:37;3.80;;;1.60;;
36817;SDS011;22761;51.542;16.450;2023-07-31T12:41:05;2.00;;;1.40;;
36817;SDS011;22761;51.542;16.450;2023-07-31T12:43:34;5.50;;;1.80;;
36817;SDS011;22761;51.542;16.450;2023-07-31T12:46:02;4.10;;;1.70;;
36817;SDS011;22761;51.542;16.450;2023-07-31T12:48:30;2.40;;;1.70;;
36817;SDS011;22761;51.542;16.450;2023-07-31T12:50:58;2.80;;;1.60;;
36817;SDS011;22761;51.542;16.450;2023-07-31T12:53:25;4.30;;;2.00;;
36817;SDS011;22761;51.542;16.450;2023-07-31T12:55:52;2.50;;;1.60;;
36817;SDS011;22761;51.542;16.450;2023-07-31T12:58:19;7.10;;;1.80;;
36817;SDS011;22761;51.542;16.450;2023-07-31T13:00:45;5.80;;;1.90;;
36817;SDS011;22761;51.542;16.450;2023-07-31T13:03:12;3.10;;;1.60;;
36817;SDS011;22761;51.542;16.450;2023-07-31T13:05:40;3.40;;;1.80;;
36817;SDS011;22761;51.542;16.450;2023-07-31T13:08:07;3.80;;;1.50;;
36817;SDS011;22761;51.542;16.450;2023-07-31T13:10:34;5.00;;;1.80;;
36817;SDS011;22761;51.542;16.450;2023-07-31T13:13:01;2.30;;;1.50;;
36817;SDS011;22761;51.542;16.450;2023-07-31T13:15:28;2.90;;;1.50;;
36817;SDS011;22761;51.542;16.450;2023-07-31T13:17:54;2.60;;;1.90;;
36817;SDS011;22761;51.542;16.450;2023-07-31T13:20:22;2.90;;;1.80;;
36817;SDS011;22761;51.542;16.450;2023-07-31T13:22:48;3.40;;;1.50;;
36817;SDS011;22761;51.542;16.450;2023-07-31T13:25:15;2.90;;;1.60;;
36817;SDS011;22761;51.542;16.450;2023-07-31T13:27:43;2.80;;;1.50;;
36817;SDS011;22761;51.542;16.450;2023-07-31T13:30:09;5.00;;;1.90;;
36817;SDS011;22761;51.542;16.450;2023-07-31T13:32:36;2.90;;;1.80;;
36817;SDS011;22761;51.542;16.450;2023-07-31T13:35:05;2.50;;;1.90;;
36817;SDS011;22761;51.542;16.450;2023-07-31T13:37:33;2.80;;;1.70;;
36817;SDS011;22761;51.542;16.450;2023-07-31T13:40:00;2.60;;;1.80;;
36817;SDS011;22761;51.542;16.450;2023-07-31T13:42:27;3.90;;;1.70;;
36817;SDS011;22761;51.542;16.450;2023-07-31T13:44:55;4.20;;;1.80;;
36817;SDS011;22761;51.542;16.450;2023-07-31T13:47:23;4.90;;;1.90;;
36817;SDS011;22761;51.542;16.450;2023-07-31T13:49:50;2.60;;;1.70;;
36817;SDS011;22761;51.542;16.450;2023-07-31T13:52:16;4.20;;;1.90;;
36817;SDS011;22761;51.542;16.450;2023-07-31T13:54:43;5.20;;;1.80;;
36817;SDS011;22761;51.542;16.450;2023-07-31T13:57:11;3.90;;;1.90;;
36817;SDS011;22761;51.542;16.450;2023-07-31T13:59:37;3.80;;;1.90;;
36817;SDS011;22761;51.542;16.450;2023-07-31T14:02:04;4.50;;;1.90;;
36817;SDS011;22761;51.542;16.450;2023-07-31T14:04:31;6.90;;;1.70;;
36817;SDS011;22761;51.542;16.450;2023-07-31T14:06:58;4.60;;;1.60;;
36817;SDS011;22761;51.542;16.450;2023-07-31T14:09:25;4.50;;;1.90;;
36817;SDS011;22761;51.542;16.450;2023-07-31T14:11:53;4.60;;;1.70;;
36817;SDS011;22761;51.542;16.450;2023-07-31T14:14:20;4.70;;;2.60;;
36817;SDS011;22761;51.542;16.450;2023-07-31T14:16:47;8.40;;;2.10;;
36817;SDS011;22761;51.542;16.450;2023-07-31T14:19:14;3.00;;;1.80;;
36817;SDS011;22761;51.542;16.450;2023-07-31T14:21:41;7.50;;;2.00;;
36817;SDS011;22761;51.542;16.450;2023-07-31T14:24:10;3.60;;;2.20;;
36817;SDS011;22761;51.542;16.450;2023-07-31T14:26:37;2.70;;;1.90;;
36817;SDS011;22761;51.542;16.450;2023-07-31T14:29:05;3.50;;;2.20;;
36817;SDS011;22761;51.542;16.450;2023-07-31T14:31:31;5.00;;;1.80;;
36817;SDS011;22761;51.542;16.450;2023-07-31T14:33:58;3.40;;;1.80;;
36817;SDS011;22761;51.542;16.450;2023-07-31T14:36:25;4.40;;;1.90;;
36817;SDS011;22761;51.542;16.450;2023-07-31T14:38:52;2.70;;;1.80;;
36817;SDS011;22761;51.542;16.450;2023-07-31T14:41:19;5.80;;;2.00;;